Welcome to Northern Hawkes Bay. New Zealand.
PWS Header
      nz Flag



Hit Counter


W3C Valid W3C Valid logo


    Wairoa

Select any of the Stations below to visit their websites.










Historic Data from Weather Underground
Select the location of interest below. Wairoa is the default. Please have patience, this Data is slow to load in.
Northern Hawkes Bay Historical Data
Daily Summary for February 15, 2018 Units:  Metric    English   Both
« Previous Day
Next Day »
Daily Weekly Monthly Yearly Custom
  High: Low: Average:
Temperature: 30.0 °C 16.1 °C 21.6 °C
Dew Point: 22.4 °C 15.8 °C 19 °C
Humidity: 99% 57% 87%
Wind Speed: 12.2km/h 0.0km/h 1.6km/h
Wind Gust: 18.3km/h - -
Wind- - South
Pressure: 1013.4 hPa 1010.4 hPa -
Precipitation: 0.0 mm    
Historical Graphs
 
 
Tabular Data for February 15, 2018
Time Temperature Dew Point Pressure Wind Wind Speed Wind Gust Humidity Rainfall Rate (Hourly) solar
00:01 19.1 °C 18.9 °C 1011.4 hPa Calm   1.1 km/h 99% 0.0 mm 0 W/m2
00:06 19.1 °C 18.9 °C 1011.4 hPa Calm   1.1 km/h 99% 0.0 mm 0 W/m2
00:11 19.1 °C 18.9 °C 1011.4 hPa Calm   1.1 km/h 99% 0.0 mm 0 W/m2
00:16 19.1 °C 18.9 °C 1011.4 hPa Calm     99% 0.0 mm 0 W/m2
00:21 19.1 °C 18.9 °C 1011.4 hPa Calm   1.1 km/h 99% 0.0 mm 0 W/m2
00:26 19.1 °C 18.9 °C 1011.4 hPa Calm   1.1 km/h 99% 0.0 mm 0 W/m2
00:31 19.2 °C 19.1 °C 1011.7 hPa Calm     99% 0.0 mm 0 W/m2
00:36 19.2 °C 19.1 °C 1011.4 hPa Calm     99% 0.0 mm 0 W/m2
00:41 19.2 °C 19.1 °C 1011.4 hPa Calm     99% 0.0 mm 0 W/m2
00:46 19.2 °C 19.1 °C 1011.7 hPa Calm     99% 0.0 mm 0 W/m2
00:51 19.2 °C 19.1 °C 1011.7 hPa Calm   1.1 km/h 99% 0.0 mm 0 W/m2
00:56 19.2 °C 19.1 °C 1011.4 hPa Calm   1.1 km/h 99% 0.0 mm 0 W/m2
01:01 19.2 °C 19.1 °C 1011.7 hPa Calm   1.1 km/h 99% 0.0 mm 0 W/m2
01:06 19.1 °C 18.9 °C 1011.7 hPa Calm   1.1 km/h 99% 0.0 mm 0 W/m2
01:11 19.0 °C 18.8 °C 1011.7 hPa Calm     99% 0.0 mm 0 W/m2
01:16 18.9 °C 18.8 °C 1011.7 hPa Calm     99% 0.0 mm 0 W/m2
01:21 18.8 °C 18.7 °C 1011.7 hPa Calm     99% 0.0 mm 0 W/m2
01:26 18.7 °C 18.6 °C 1011.7 hPa Calm     99% 0.0 mm 0 W/m2
01:31 18.6 °C 18.4 °C 1011.4 hPa Calm     99% 0.0 mm 0 W/m2
01:36 18.5 °C 18.3 °C 1011.7 hPa Calm     99% 0.0 mm 0 W/m2
01:41 18.4 °C 18.3 °C 1011.7 hPa Calm     99% 0.0 mm 0 W/m2
01:46 18.4 °C 18.3 °C 1011.7 hPa Calm     99% 0.0 mm 0 W/m2
01:51 18.3 °C 18.2 °C 1011.7 hPa Calm     99% 0.0 mm 0 W/m2
01:56 18.3 °C 18.2 °C 1011.7 hPa Calm     99% 0.0 mm 0 W/m2
02:01 18.3 °C 18.2 °C 1011.7 hPa Calm     99% 0.0 mm 0 W/m2
02:06 18.2 °C 18.1 °C 1011.4 hPa Calm     99% 0.0 mm 0 W/m2
02:11 18.1 °C 17.9 °C 1011.4 hPa Calm     99% 0.0 mm 0 W/m2
02:16 18.1 °C 17.9 °C 1011.4 hPa Calm     99% 0.0 mm 0 W/m2
02:21 18.1 °C 17.9 °C 1011.4 hPa Calm     99% 0.0 mm 0 W/m2
02:26 18.1 °C 17.9 °C 1011.4 hPa Calm     99% 0.0 mm 0 W/m2
02:31 17.9 °C 17.4 °C 1011.4 hPa Calm     97% 0.0 mm 0 W/m2
02:48 17.8 °C 17.3 °C 1011.4 hPa Calm     97% 0.0 mm 0 W/m2
02:53 17.7 °C 17.2 °C 1011.4 hPa Calm     97% 0.0 mm 0 W/m2
02:58 17.7 °C 17.2 °C 1011.4 hPa Calm     97% 0.0 mm 0 W/m2
03:03 17.6 °C 17.1 °C 1011.4 hPa Calm   1.1 km/h 97% 0.0 mm 0 W/m2
03:08 17.6 °C 17.1 °C 1011.4 hPa Calm   2.6 km/h 97% 0.0 mm 0 W/m2
03:13 17.6 °C 17.1 °C 1011.4 hPa Calm   2.6 km/h 97% 0.0 mm 0 W/m2
03:18 17.5 °C 17.1 °C 1011.4 hPa Calm     97% 0.0 mm 0 W/m2
03:23 17.4 °C 16.9 °C 1011.4 hPa Calm     97% 0.0 mm 0 W/m2
03:28 17.3 °C 16.8 °C 1011.4 hPa Calm     97% 0.0 mm 0 W/m2
03:33 17.3 °C 16.8 °C 1011.4 hPa Calm     97% 0.0 mm 0 W/m2
03:38 17.3 °C 16.8 °C 1011.4 hPa Calm     97% 0.0 mm 0 W/m2
03:43 17.2 °C 16.7 °C 1011.4 hPa Calm     97% 0.0 mm 0 W/m2
03:48 17.2 °C 16.7 °C 1011.4 hPa Calm     97% 0.0 mm 0 W/m2
03:53 17.2 °C 16.7 °C 1011.4 hPa Calm     97% 0.0 mm 0 W/m2
03:58 17.0 °C 16.6 °C 1011.4 hPa Calm     97% 0.0 mm 0 W/m2
04:03 17.0 °C 16.6 °C 1011.4 hPa Calm     97% 0.0 mm 0 W/m2
04:08 16.9 °C 16.6 °C 1011.4 hPa Calm     98% 0.0 mm 0 W/m2
04:13 16.9 °C 16.6 °C 1011.4 hPa Calm     98% 0.0 mm 0 W/m2
04:18 16.7 °C 16.4 °C 1011.4 hPa Calm     98% 0.0 mm 0 W/m2
04:23 16.7 °C 16.4 °C 1011.1 hPa Calm     98% 0.0 mm 0 W/m2
04:28 16.7 °C 16.4 °C 1011.4 hPa Calm     98% 0.0 mm 0 W/m2
04:33 16.6 °C 16.3 °C 1011.4 hPa Calm     98% 0.0 mm 0 W/m2
04:38 16.6 °C 16.3 °C 1011.7 hPa Calm   1.1 km/h 98% 0.0 mm 0 W/m2
04:43 16.7 °C 16.4 °C 1011.7 hPa Calm   1.1 km/h 98% 0.0 mm 0 W/m2
04:48 16.6 °C 16.3 °C 1011.4 hPa Calm   1.1 km/h 98% 0.0 mm 0 W/m2
04:53 16.6 °C 16.3 °C 1011.4 hPa Calm     98% 0.0 mm 0 W/m2
04:58 16.5 °C 16.2 °C 1011.4 hPa Calm     98% 0.0 mm 0 W/m2
05:03 16.5 °C 16.2 °C 1011.4 hPa Calm     98% 0.0 mm 0 W/m2
05:08 16.4 °C 16.1 °C 1011.7 hPa Calm     98% 0.0 mm 0 W/m2
05:27 16.5 °C 16.2 °C 1011.7 hPa Calm     98% 0.0 mm 0 W/m2
05:32 16.4 °C 16.1 °C 1011.7 hPa Calm     98% 0.0 mm 0 W/m2
05:42 16.2 °C 15.9 °C 1011.7 hPa Calm     98% 0.0 mm 0 W/m2
05:47 16.1 °C 15.8 °C 1011.7 hPa Calm     98% 0.0 mm 0 W/m2
05:52 16.1 °C 15.8 °C 1011.7 hPa Calm     98% 0.0 mm 0 W/m2
05:57 16.1 °C 15.8 °C 1012.1 hPa Calm   1.1 km/h 98% 0.0 mm 0 W/m2
06:02 16.1 °C 15.8 °C 1012.1 hPa Calm   1.1 km/h 98% 0.0 mm 0 W/m2
06:07 16.1 °C 15.8 °C 1012.1 hPa Calm   1.1 km/h 98% 0.0 mm 0 W/m2
06:12 16.2 °C 15.9 °C 1012.1 hPa Calm   1.1 km/h 98% 0.0 mm 0 W/m2
06:17 16.2 °C 15.9 °C 1012.1 hPa Calm   1.1 km/h 98% 0.0 mm 0 W/m2
06:22 16.2 °C 15.9 °C 1012.4 hPa Calm   1.1 km/h 98% 0.0 mm 0 W/m2
06:27 16.3 °C 16.0 °C 1012.1 hPa Calm     98% 0.0 mm 0 W/m2
06:32 16.3 °C 16.0 °C 1012.1 hPa Calm     98% 0.0 mm 0 W/m2
06:37 16.3 °C 16.0 °C 1012.1 hPa Calm     98% 0.0 mm 0 W/m2
06:42 16.4 °C 16.1 °C 1012.1 hPa Calm     98% 0.0 mm 1 W/m2
06:47 16.4 °C 16.1 °C 1012.1 hPa Calm     98% 0.0 mm 4 W/m2
06:52 16.5 °C 16.2 °C 1012.4 hPa Calm     98% 0.0 mm 7 W/m2
06:57 16.6 °C 16.3 °C 1012.4 hPa Calm     98% 0.0 mm 12 W/m2
07:02 16.6 °C 16.3 °C 1012.4 hPa Calm     98% 0.0 mm 18 W/m2
07:07 16.6 °C 16.3 °C 1012.4 hPa Calm     98% 0.0 mm 23 W/m2
07:12 16.6 °C 16.3 °C 1012.4 hPa Calm   1.1 km/h 98% 0.0 mm 24 W/m2
07:17 16.8 °C 16.5 °C 1012.8 hPa Calm   1.1 km/h 98% 0.0 mm 29 W/m2
07:22 16.9 °C 16.6 °C 1012.8 hPa Calm     98% 0.0 mm 33 W/m2
07:27 16.9 °C 16.6 °C 1012.8 hPa Calm   2.6 km/h 98% 0.0 mm 44 W/m2
07:32 16.9 °C 16.6 °C 1012.8 hPa NNW 1.1 km/h 3.5 km/h 98% 0.0 mm 51 W/m2
07:37 16.8 °C 16.5 °C 1012.8 hPa Calm   3.5 km/h 98% 0.0 mm 51 W/m2
07:42 17.0 °C 16.6 °C 1012.8 hPa Calm   3.5 km/h 97% 0.0 mm 79 W/m2
07:47 17.2 °C 16.7 °C 1012.8 hPa Calm   2.6 km/h 97% 0.0 mm 88 W/m2
07:52 17.3 °C 16.8 °C 1012.8 hPa Calm   2.6 km/h 97% 0.0 mm 81 W/m2
07:57 17.3 °C 16.8 °C 1013.1 hPa Calm   2.6 km/h 97% 0.0 mm 92 W/m2
08:02 17.5 °C 17.1 °C 1013.1 hPa NNW 1.1 km/h 3.5 km/h 97% 0.0 mm 103 W/m2
08:07 17.6 °C 17.1 °C 1013.1 hPa North 1.1 km/h 3.5 km/h 97% 0.0 mm 113 W/m2
08:12 17.5 °C 17.1 °C 1013.1 hPa NNW 1.1 km/h 6.1 km/h 97% 0.0 mm 83 W/m2
08:17 17.6 °C 17.1 °C 1013.1 hPa NNW 2.6 km/h 6.1 km/h 97% 0.0 mm 111 W/m2
08:22 17.8 °C 17.3 °C 1013.4 hPa Calm   5.0 km/h 97% 0.0 mm 135 W/m2
08:27 17.8 °C 17.3 °C 1013.1 hPa North 1.1 km/h 5.0 km/h 97% 0.0 mm 115 W/m2
08:32 17.9 °C 17.4 °C 1013.1 hPa Calm   3.5 km/h 97% 0.0 mm 114 W/m2
08:37 18.3 °C 18.2 °C 1013.4 hPa Calm   3.5 km/h 99% 0.0 mm 248 W/m2
08:42 18.4 °C 18.3 °C 1013.1 hPa NNW 2.6 km/h 3.5 km/h 99% 0.0 mm 180 W/m2
08:47 18.7 °C 18.6 °C 1013.1 hPa NNW 2.6 km/h 5.0 km/h 99% 0.0 mm 249 W/m2
08:52 19.0 °C 18.8 °C 1013.4 hPa NW 1.1 km/h 5.0 km/h 99% 0.0 mm 337 W/m2
08:57 19.4 °C 19.3 °C 1013.4 hPa NW 2.6 km/h 6.1 km/h 99% 0.0 mm 223 W/m2
09:02 19.2 °C 19.1 °C 1013.4 hPa Calm   6.1 km/h 99% 0.0 mm 195 W/m2
09:07 19.1 °C 18.9 °C 1013.4 hPa NW 2.6 km/h 6.1 km/h 99% 0.0 mm 209 W/m2
09:12 19.1 °C 18.9 °C 1013.4 hPa NW 2.6 km/h 5.0 km/h 99% 0.0 mm 145 W/m2
09:17 19.4 °C 19.3 °C 1013.4 hPa Calm   5.0 km/h 99% 0.0 mm 297 W/m2
09:22 20.4 °C 20.3 °C 1013.4 hPa Calm   5.0 km/h 99% 0.0 mm 319 W/m2
09:27 21.0 °C 20.7 °C 1013.4 hPa NNW 1.1 km/h 2.6 km/h 98% 0.0 mm 341 W/m2
09:33 22.0 °C 21.5 °C 1013.4 hPa Calm   3.5 km/h 97% 0.0 mm 362 W/m2
09:38 22.9 °C 22.4 °C 1013.4 hPa Calm   3.5 km/h 97% 0.0 mm 383 W/m2
09:43 22.9 °C 22.4 °C 1013.4 hPa Calm   3.5 km/h 97% 0.0 mm 393 W/m2
09:48 24.0 °C 22.1 °C 1013.4 hPa SE 3.5 km/h 6.1 km/h 89% 0.0 mm 411 W/m2
09:54 24.2 °C 20.8 °C 1013.4 hPa SSE 1.1 km/h 6.1 km/h 81% 0.0 mm 232 W/m2
09:59 24.0 °C 19.9 °C 1013.4 hPa Calm   5.0 km/h 78% 0.0 mm 414 W/m2
10:05 24.3 °C 19.8 °C 1013.4 hPa SSE 2.6 km/h 6.1 km/h 76% 0.0 mm 432 W/m2
10:10 24.3 °C 19.4 °C 1013.4 hPa SE 1.1 km/h 9.7 km/h 74% 0.0 mm 445 W/m2
10:15 23.9 °C 19.2 °C 1013.4 hPa SE 6.1 km/h 9.7 km/h 75% 0.0 mm 455 W/m2
10:20 23.8 °C 19.1 °C 1013.4 hPa SSE 3.5 km/h 9.7 km/h 75% 0.0 mm 470 W/m2
10:25 23.6 °C 19.2 °C 1013.4 hPa SSE 5.0 km/h 9.7 km/h 76% 0.0 mm 483 W/m2
10:30 23.4 °C 19.2 °C 1013.4 hPa SSE 3.5 km/h 9.7 km/h 77% 0.0 mm 495 W/m2
10:35 23.6 °C 19.2 °C 1013.4 hPa SSE 1.1 km/h 9.7 km/h 76% 0.0 mm 510 W/m2
10:40 23.8 °C 19.1 °C 1013.4 hPa SSE 6.1 km/h 9.7 km/h 75% 0.0 mm 524 W/m2
10:45 23.3 °C 18.7 °C 1013.4 hPa South 7.2 km/h 12.2 km/h 75% 0.0 mm 535 W/m2
10:50 23.3 °C 18.8 °C 1013.4 hPa South 6.1 km/h 12.2 km/h 76% 0.0 mm 549 W/m2
10:55 23.3 °C 18.8 °C 1013.4 hPa SSE 3.5 km/h 12.2 km/h 76% 0.0 mm 561 W/m2
11:00 23.4 °C 19.2 °C 1013.4 hPa SSE 8.7 km/h 11.1 km/h 77% 0.0 mm 576 W/m2
11:05 23.6 °C 19.2 °C 1013.4 hPa South 6.1 km/h 11.1 km/h 76% 0.0 mm 588 W/m2
11:10 23.7 °C 19.2 °C 1013.4 hPa South 2.6 km/h 9.7 km/h 76% 0.0 mm 605 W/m2
11:15 24.1 °C 19.2 °C 1013.1 hPa South 1.1 km/h 11.1 km/h 74% 0.0 mm 622 W/m2
11:20 23.9 °C 19.0 °C 1013.1 hPa SSE 9.7 km/h 13.4 km/h 74% 0.0 mm 636 W/m2
11:25 23.7 °C 19.2 °C 1013.1 hPa SSE 2.6 km/h 13.4 km/h 76% 0.0 mm 651 W/m2
11:30 23.7 °C 19.0 °C 1013.1 hPa SSE 6.1 km/h 9.7 km/h 75% 0.0 mm 661 W/m2
11:35 23.8 °C 19.1 °C 1013.1 hPa SSE 2.6 km/h 9.7 km/h 75% 0.0 mm 678 W/m2
11:40 23.7 °C 19.2 °C 1013.1 hPa Calm   11.1 km/h 76% 0.0 mm 693 W/m2
11:45 23.7 °C 19.4 °C 1013.1 hPa SSE 3.5 km/h 11.1 km/h 77% 0.0 mm 710 W/m2
11:50 23.5 °C 19.1 °C 1012.8 hPa SSE 2.6 km/h 12.2 km/h 76% 0.0 mm 722 W/m2
11:55 23.4 °C 18.9 °C 1012.8 hPa SSE 6.1 km/h 12.2 km/h 76% 0.0 mm 740 W/m2
12:00 23.4 °C 19.2 °C 1012.8 hPa SSE 6.1 km/h 12.2 km/h 77% 0.0 mm 757 W/m2
12:05 23.8 °C 19.6 °C 1012.8 hPa SSE 2.6 km/h 12.2 km/h 77% 0.0 mm 772 W/m2
12:10 24.0 °C 19.3 °C 1012.8 hPa SSE 3.5 km/h 11.1 km/h 75% 0.0 mm 784 W/m2
12:15 24.2 °C 19.5 °C 1013.1 hPa SSE 5.0 km/h 11.1 km/h 75% 0.0 mm 790 W/m2
12:20 24.0 °C 19.1 °C 1012.8 hPa SE 2.6 km/h 12.2 km/h 74% 0.0 mm 796 W/m2
12:25 23.7 °C 19.0 °C 1012.8 hPa SE 3.5 km/h 14.8 km/h 75% 0.0 mm 799 W/m2
12:30 24.0 °C 19.3 °C 1012.8 hPa Calm   14.8 km/h 75% 0.0 mm 808 W/m2
12:35 24.6 °C 19.7 °C 1012.8 hPa SE 2.6 km/h 13.4 km/h 74% 0.0 mm 816 W/m2
12:40 24.3 °C 19.4 °C 1012.8 hPa SSE 12.2 km/h 15.8 km/h 74% 0.0 mm 821 W/m2
12:45 23.6 °C 19.2 °C 1012.8 hPa South 3.5 km/h 18.3 km/h 76% 0.0 mm 817 W/m2
12:50 23.9 °C 19.8 °C 1012.8 hPa SSE 5.0 km/h 18.3 km/h 78% 0.0 mm 817 W/m2
12:55 24.3 °C 19.8 °C 1012.8 hPa SSE 6.1 km/h 14.8 km/h 76% 0.0 mm 825 W/m2
13:00 24.3 °C 19.6 °C 1012.8 hPa SSE 2.6 km/h 14.8 km/h 75% 0.0 mm 823 W/m2
13:05 24.0 °C 19.6 °C 1012.8 hPa SSE 6.1 km/h 13.4 km/h 76% 0.0 mm 819 W/m2
13:10 23.8 °C 19.9 °C 1012.8 hPa South 6.1 km/h 15.8 km/h 79% 0.0 mm 819 W/m2
13:15 24.0 °C 20.2 °C 1012.8 hPa South 7.2 km/h 15.8 km/h 79% 0.0 mm 816 W/m2
13:20 24.0 °C 20.2 °C 1012.8 hPa South 6.1 km/h 13.4 km/h 79% 0.0 mm 815 W/m2
13:25 24.2 °C 20.2 °C 1012.4 hPa South 8.7 km/h 14.8 km/h 78% 0.0 mm 815 W/m2
13:30 24.0 °C 20.3 °C 1012.8 hPa SSE 7.2 km/h 14.8 km/h 80% 0.0 mm 810 W/m2
13:35 24.0 °C 20.3 °C 1012.8 hPa South 7.2 km/h 15.8 km/h 80% 0.0 mm 807 W/m2
13:40 24.2 °C 20.8 °C 1012.4 hPa South 6.1 km/h 15.8 km/h 81% 0.0 mm 804 W/m2
13:45 24.7 °C 20.4 °C 1012.8 hPa South 1.1 km/h 15.8 km/h 77% 0.0 mm 802 W/m2
13:50 24.8 °C 19.4 °C 1012.4 hPa SSE 7.2 km/h 15.8 km/h 72% 0.0 mm 797 W/m2
13:55 25.0 °C 19.2 °C 1012.4 hPa SE 5.0 km/h 15.8 km/h 70% 0.0 mm 792 W/m2
14:00 25.1 °C 19.1 °C 1012.4 hPa SE 7.2 km/h 13.4 km/h 69% 0.0 mm 784 W/m2
14:05 25.1 °C 18.8 °C 1012.4 hPa SE 7.2 km/h 14.8 km/h 68% 0.0 mm 778 W/m2
14:10 25.1 °C 18.8 °C 1012.4 hPa SE 2.6 km/h 14.8 km/h 68% 0.0 mm 769 W/m2
14:15 25.3 °C 19.2 °C 1012.4 hPa ESE 8.7 km/h 13.4 km/h 69% 0.0 mm 762 W/m2
14:20 25.3 °C 19.2 °C 1012.4 hPa SE 6.1 km/h 15.8 km/h 69% 0.0 mm 753 W/m2
14:25 25.3 °C 19.4 °C 1012.4 hPa SE 5.0 km/h 15.8 km/h 70% 0.0 mm 745 W/m2
14:30 25.4 °C 19.3 °C 1012.1 hPa SE 7.2 km/h 15.8 km/h 69% 0.0 mm 737 W/m2
14:35 25.4 °C 19.6 °C 1012.1 hPa SE 7.2 km/h 13.4 km/h 70% 0.0 mm 703 W/m2
14:40 25.4 °C 19.6 °C 1012.1 hPa SE 9.7 km/h 14.8 km/h 70% 0.0 mm 715 W/m2
14:45 25.4 °C 20.0 °C 1012.1 hPa SSE 9.7 km/h 17.2 km/h 72% 0.0 mm 701 W/m2
14:50 25.7 °C 20.3 °C 1012.1 hPa SSE 9.7 km/h 17.2 km/h 72% 0.0 mm 608 W/m2
14:55 25.9 °C 20.5 °C 1012.1 hPa SE 5.0 km/h 14.8 km/h 72% 0.0 mm 685 W/m2
15:00 26.1 °C 20.4 °C 1012.1 hPa SE 8.7 km/h 14.8 km/h 71% 0.0 mm 479 W/m2
15:05 26.2 °C 20.3 °C 1011.7 hPa SE 5.0 km/h 13.4 km/h 70% 0.0 mm 560 W/m2
15:10 26.3 °C 20.9 °C 1011.7 hPa SE 5.0 km/h 15.8 km/h 72% 0.0 mm 642 W/m2
15:15 26.4 °C 20.9 °C 1011.7 hPa ESE 3.5 km/h 15.8 km/h 72% 0.0 mm 401 W/m2
15:20 26.6 °C 20.7 °C 1011.7 hPa SE 7.2 km/h 13.4 km/h 70% 0.0 mm 586 W/m2
15:36 27.0 °C 20.4 °C 1011.7 hPa SE 3.5 km/h 13.4 km/h 67% 0.0 mm 174 W/m2
15:41 27.0 °C 20.4 °C 1011.7 hPa ESE 6.1 km/h 13.4 km/h 67% 0.0 mm 434 W/m2
15:46 27.0 °C 20.6 °C 1011.4 hPa ESE 5.0 km/h 12.2 km/h 68% 0.0 mm 117 W/m2
15:51 27.4 °C 21.0 °C 1011.7 hPa ESE 3.5 km/h 11.1 km/h 68% 0.0 mm 299 W/m2
15:56 27.5 °C 20.1 °C 1011.4 hPa ESE 1.1 km/h 11.1 km/h 64% 0.0 mm 145 W/m2
16:01 27.4 °C 20.3 °C 1011.4 hPa ESE 5.0 km/h 11.1 km/h 65% 0.0 mm 535 W/m2
16:06 27.6 °C 20.2 °C 1011.4 hPa SE 5.0 km/h 12.2 km/h 64% 0.0 mm 525 W/m2
16:11 27.7 °C 20.6 °C 1011.4 hPa Calm   12.2 km/h 65% 0.0 mm 515 W/m2
16:16 28.1 °C 20.7 °C 1011.4 hPa SE 3.5 km/h 11.1 km/h 64% 0.0 mm 507 W/m2
16:21 27.9 °C 20.7 °C 1011.4 hPa ESE 3.5 km/h 11.1 km/h 65% 0.0 mm 495 W/m2
16:26 27.8 °C 20.7 °C 1011.4 hPa ESE 2.6 km/h 9.7 km/h 65% 0.0 mm 484 W/m2
16:31 28.3 °C 21.1 °C 1011.4 hPa Calm   9.7 km/h 65% 0.0 mm 475 W/m2
16:36 28.4 °C 20.7 °C 1011.1 hPa SE 1.1 km/h 8.7 km/h 63% 0.0 mm 465 W/m2
16:41 28.3 °C 21.1 °C 1011.4 hPa SE 1.1 km/h 11.1 km/h 65% 0.0 mm 389 W/m2
16:46 27.9 °C 20.7 °C 1011.1 hPa SE 3.5 km/h 11.1 km/h 65% 0.0 mm 444 W/m2
16:51 27.7 °C 20.6 °C 1011.1 hPa SE 3.5 km/h 11.1 km/h 65% 0.0 mm 428 W/m2
16:56 27.9 °C 20.7 °C 1011.1 hPa Calm   11.1 km/h 65% 0.0 mm 419 W/m2
17:01 28.7 °C 21.2 °C 1010.7 hPa Calm   11.1 km/h 64% 0.0 mm 410 W/m2
17:06 29.0 °C 20.5 °C 1010.7 hPa SE 3.5 km/h 8.7 km/h 60% 0.0 mm 398 W/m2
17:11 28.6 °C 21.4 °C 1010.7 hPa SSE 8.7 km/h 9.7 km/h 65% 0.0 mm 384 W/m2
17:16 28.1 °C 20.2 °C 1010.7 hPa SE 3.5 km/h 9.7 km/h 62% 0.0 mm 370 W/m2
17:21 28.3 °C 20.9 °C 1010.7 hPa Calm   9.7 km/h 64% 0.0 mm 357 W/m2
17:26 28.6 °C 20.6 °C 1010.7 hPa SE 5.0 km/h 9.7 km/h 62% 0.0 mm 346 W/m2
17:31 28.3 °C 20.9 °C 1010.7 hPa SE 1.1 km/h 9.7 km/h 64% 0.0 mm 331 W/m2
17:36 28.4 °C 20.7 °C 1010.7 hPa ESE 3.5 km/h 9.7 km/h 63% 0.0 mm 319 W/m2
17:41 28.1 °C 20.4 °C 1010.7 hPa ESE 2.6 km/h 8.7 km/h 63% 0.0 mm 306 W/m2
17:46 28.4 °C 20.9 °C 1010.7 hPa ESE 3.5 km/h 7.2 km/h 64% 0.0 mm 294 W/m2
17:51 28.6 °C 20.9 °C 1010.4 hPa ESE 1.1 km/h 7.2 km/h 63% 0.0 mm 282 W/m2
17:56 28.4 °C 20.9 °C 1010.7 hPa Calm   7.2 km/h 64% 0.0 mm 269 W/m2
18:01 28.6 °C 21.2 °C 1010.4 hPa Calm   6.1 km/h 64% 0.0 mm 257 W/m2
18:06 28.9 °C 21.2 °C 1010.7 hPa Calm   5.0 km/h 63% 0.0 mm 244 W/m2
18:11 29.2 °C 20.7 °C 1010.4 hPa Calm   3.5 km/h 60% 0.0 mm 229 W/m2
18:16 28.8 °C 20.6 °C 1010.4 hPa Calm   3.5 km/h 61% 0.0 mm 215 W/m2
18:21 29.9 °C 20.5 °C 1010.4 hPa Calm   3.5 km/h 57% 0.0 mm 197 W/m2
18:26 30.0 °C 20.9 °C 1010.4 hPa Calm   1.1 km/h 58% 0.0 mm 192 W/m2
18:31 28.7 °C 20.7 °C 1010.4 hPa Calm   2.6 km/h 62% 0.0 mm 66 W/m2
18:36 26.9 °C 20.8 °C 1010.7 hPa Calm   2.6 km/h 69% 0.0 mm 48 W/m2
18:41 26.0 °C 20.8 °C 1010.7 hPa Calm   2.6 km/h 73% 0.0 mm 49 W/m2
18:46 25.6 °C 20.7 °C 1010.7 hPa Calm   2.6 km/h 74% 0.0 mm 58 W/m2
18:51 25.9 °C 20.9 °C 1010.7 hPa Calm   2.6 km/h 74% 0.0 mm 46 W/m2
18:56 25.6 °C 20.7 °C 1010.7 hPa Calm     74% 0.0 mm 54 W/m2
19:01 25.4 °C 21.1 °C 1010.7 hPa Calm   3.5 km/h 77% 0.0 mm 46 W/m2
19:06 25.1 °C 21.0 °C 1010.7 hPa Calm   3.5 km/h 78% 0.0 mm 44 W/m2
19:11 24.8 °C 21.3 °C 1010.7 hPa Calm   3.5 km/h 81% 0.0 mm 51 W/m2
19:16 24.5 °C 21.3 °C 1010.7 hPa Calm   3.5 km/h 82% 0.0 mm 37 W/m2
19:21 24.4 °C 21.3 °C 1011.1 hPa Calm   3.5 km/h 83% 0.0 mm 36 W/m2
19:26 24.2 °C 21.3 °C 1011.1 hPa Calm   3.5 km/h 84% 0.0 mm 49 W/m2
19:31 24.1 °C 21.3 °C 1011.1 hPa Calm   3.5 km/h 84% 0.0 mm 27 W/m2
19:36 23.8 °C 21.2 °C 1011.1 hPa Calm   2.6 km/h 85% 0.0 mm 23 W/m2
19:41 23.8 °C 21.3 °C 1011.1 hPa Calm   1.1 km/h 86% 0.0 mm 20 W/m2
19:46 23.5 °C 21.1 °C 1011.4 hPa Calm     86% 0.0 mm 18 W/m2
19:51 23.3 °C 21.1 °C 1011.4 hPa Calm     87% 0.0 mm 15 W/m2
19:56 23.1 °C 21.0 °C 1011.4 hPa Calm     88% 0.0 mm 10 W/m2
20:01 22.7 °C 20.6 °C 1011.4 hPa Calm   1.1 km/h 88% 0.0 mm 5 W/m2
20:06 22.3 °C 20.4 °C 1011.7 hPa Calm   1.1 km/h 89% 0.0 mm 2 W/m2
20:11 22.0 °C 20.3 °C 1011.7 hPa Calm   1.1 km/h 90% 0.0 mm 0 W/m2
20:16 21.8 °C 20.4 °C 1011.7 hPa Calm     92% 0.0 mm 0 W/m2
20:21 21.7 °C 20.4 °C 1012.1 hPa Calm     92% 0.0 mm 0 W/m2
20:26 21.6 °C 20.3 °C 1011.7 hPa Calm     92% 0.0 mm 0 W/m2
20:31 21.6 °C 20.3 °C 1012.1 hPa Calm     92% 0.0 mm 0 W/m2
20:36 21.5 °C 20.3 °C 1012.1 hPa Calm     93% 0.0 mm 0 W/m2
20:41 21.4 °C 20.2 °C 1012.1 hPa Calm     93% 0.0 mm 0 W/m2
20:46 21.3 °C 20.2 °C 1012.1 hPa Calm     93% 0.0 mm 0 W/m2
20:51 21.1 °C 19.9 °C 1012.1 hPa Calm     93% 0.0 mm 0 W/m2
20:56 21.0 °C 19.8 °C 1012.1 hPa Calm     93% 0.0 mm 0 W/m2
21:01 20.9 °C 19.9 °C 1012.1 hPa Calm     94% 0.0 mm 0 W/m2
21:06 20.9 °C 20.1 °C 1012.1 hPa Calm     95% 0.0 mm 0 W/m2
21:11 20.9 °C 20.1 °C 1012.1 hPa Calm     95% 0.0 mm 0 W/m2
21:16 20.9 °C 20.3 °C 1012.1 hPa Calm     96% 0.0 mm 0 W/m2
21:21 20.8 °C 20.2 °C 1012.4 hPa Calm     96% 0.0 mm 0 W/m2
21:26 20.7 °C 20.1 °C 1012.4 hPa Calm     96% 0.0 mm 0 W/m2
21:32 20.6 °C 19.9 °C 1012.4 hPa Calm     96% 0.0 mm 0 W/m2
21:38 20.6 °C 19.9 °C 1012.4 hPa Calm     96% 0.0 mm 0 W/m2
21:43 20.3 °C 19.8 °C 1012.4 hPa Calm     97% 0.0 mm 0 W/m2
21:48 20.3 °C 19.8 °C 1012.4 hPa Calm     97% 0.0 mm 0 W/m2
21:53 20.3 °C 19.8 °C 1012.8 hPa Calm     97% 0.0 mm 0 W/m2
21:58 20.3 °C 19.8 °C 1012.8 hPa Calm     97% 0.0 mm 0 W/m2
22:04 20.3 °C 19.8 °C 1012.8 hPa Calm     97% 0.0 mm 0 W/m2
22:09 20.3 °C 19.8 °C 1012.4 hPa Calm     97% 0.0 mm 0 W/m2
22:15 20.2 °C 19.7 °C 1012.8 hPa Calm     97% 0.0 mm 0 W/m2
22:20 20.1 °C 19.8 °C 1012.8 hPa Calm     98% 0.0 mm 0 W/m2
22:25 20.1 °C 19.8 °C 1012.8 hPa Calm     98% 0.0 mm 0 W/m2
22:30 20.0 °C 19.7 °C 1012.8 hPa Calm     98% 0.0 mm 0 W/m2
22:35 19.9 °C 19.8 °C 1012.8 hPa Calm     99% 0.0 mm 0 W/m2
22:40 19.8 °C 19.7 °C 1012.8 hPa Calm     99% 0.0 mm 0 W/m2
22:46 19.7 °C 19.6 °C 1012.8 hPa Calm     99% 0.0 mm 0 W/m2
22:51 19.6 °C 19.4 °C 1012.8 hPa Calm     99% 0.0 mm 0 W/m2
22:56 19.5 °C 19.3 °C 1012.8 hPa Calm     99% 0.0 mm 0 W/m2
23:01 19.5 °C 19.3 °C 1012.8 hPa Calm     99% 0.0 mm 0 W/m2
23:06 19.4 °C 19.3 °C 1012.8 hPa Calm     99% 0.0 mm 0 W/m2
23:11 19.4 °C 19.3 °C 1012.8 hPa Calm   1.1 km/h 99% 0.0 mm 0 W/m2
23:16 19.3 °C 19.2 °C 1012.8 hPa Calm   1.1 km/h 99% 0.0 mm 0 W/m2
23:21 19.2 °C 19.1 °C 1012.8 hPa Calm   1.1 km/h 99% 0.0 mm 0 W/m2
23:26 19.2 °C 19.1 °C 1012.8 hPa Calm   1.1 km/h 99% 0.0 mm 0 W/m2
23:31 19.2 °C 19.1 °C 1012.8 hPa Calm   1.1 km/h 99% 0.0 mm 0 W/m2
23:36 19.1 °C 18.9 °C 1012.8 hPa Calm     99% 0.0 mm 0 W/m2
23:41 19.1 °C 18.9 °C 1012.8 hPa Calm     99% 0.0 mm 0 W/m2
23:46 19.0 °C 18.8 °C 1013.1 hPa Calm     99% 0.0 mm 0 W/m2
23:51 18.9 °C 18.8 °C 1012.8 hPa Calm     99% 0.0 mm 0 W/m2
23:56 18.8 °C 18.7 °C 1013.1 hPa Calm     99% 0.0 mm 0 W/m2
Northern Hawkes Bay. New Zealand Historic Data
Compliments of Weather Underground - 2 mb